sensor_id;sensor_type;location;lat;lon;timestamp;P1;durP1;ratioP1;P2;durP2;ratioP2
12437;SDS011;6283;51.330;12.374;2022-07-26T00:00:04;8.70;;;7.22;;
12437;SDS011;6283;51.330;12.374;2022-07-26T00:02:30;8.30;;;7.10;;
12437;SDS011;6283;51.330;12.374;2022-07-26T00:04:56;8.35;;;7.22;;
12437;SDS011;6283;51.330;12.374;2022-07-26T00:07:22;7.75;;;7.05;;
12437;SDS011;6283;51.330;12.374;2022-07-26T00:09:47;7.80;;;7.00;;
12437;SDS011;6283;51.330;12.374;2022-07-26T00:12:13;8.43;;;6.78;;
12437;SDS011;6283;51.330;12.374;2022-07-26T00:14:39;9.15;;;6.50;;
12437;SDS011;6283;51.330;12.374;2022-07-26T00:17:04;7.68;;;6.68;;
12437;SDS011;6283;51.330;12.374;2022-07-26T00:19:30;7.55;;;6.82;;
12437;SDS011;6283;51.330;12.374;2022-07-26T00:21:56;8.18;;;6.90;;
12437;SDS011;6283;51.330;12.374;2022-07-26T00:24:40;7.80;;;7.10;;
12437;SDS011;6283;51.330;12.374;2022-07-26T00:27:05;7.60;;;6.90;;
12437;SDS011;6283;51.330;12.374;2022-07-26T00:29:31;8.05;;;7.30;;
12437;SDS011;6283;51.330;12.374;2022-07-26T00:31:57;7.97;;;7.18;;
12437;SDS011;6283;51.330;12.374;2022-07-26T00:34:22;8.57;;;7.05;;
12437;SDS011;6283;51.330;12.374;2022-07-26T00:36:48;7.82;;;6.47;;
12437;SDS011;6283;51.330;12.374;2022-07-26T00:39:14;8.18;;;7.38;;
12437;SDS011;6283;51.330;12.374;2022-07-26T00:41:39;8.57;;;7.10;;
12437;SDS011;6283;51.330;12.374;2022-07-26T00:44:05;7.68;;;6.97;;
12437;SDS011;6283;51.330;12.374;2022-07-26T00:46:30;7.25;;;6.50;;
12437;SDS011;6283;51.330;12.374;2022-07-26T00:48:56;10.23;;;7.22;;
12437;SDS011;6283;51.330;12.374;2022-07-26T00:51:22;7.43;;;6.55;;
12437;SDS011;6283;51.330;12.374;2022-07-26T00:53:47;7.25;;;6.55;;
12437;SDS011;6283;51.330;12.374;2022-07-26T00:56:14;7.10;;;6.18;;
12437;SDS011;6283;51.330;12.374;2022-07-26T00:58:40;6.68;;;5.97;;
12437;SDS011;6283;51.330;12.374;2022-07-26T01:01:07;6.90;;;5.85;;
12437;SDS011;6283;51.330;12.374;2022-07-26T01:03:33;8.32;;;6.60;;
12437;SDS011;6283;51.330;12.374;2022-07-26T01:05:59;7.80;;;6.50;;
12437;SDS011;6283;51.330;12.374;2022-07-26T01:08:25;6.63;;;6.00;;
12437;SDS011;6283;51.330;12.374;2022-07-26T01:10:50;6.00;;;5.40;;
12437;SDS011;6283;51.330;12.374;2022-07-26T01:13:20;6.80;;;6.10;;
12437;SDS011;6283;51.330;12.374;2022-07-26T01:15:46;6.97;;;5.97;;
12437;SDS011;6283;51.330;12.374;2022-07-26T01:18:12;8.40;;;6.30;;
12437;SDS011;6283;51.330;12.374;2022-07-26T01:20:38;8.27;;;5.50;;
12437;SDS011;6283;51.330;12.374;2022-07-26T01:23:05;6.97;;;6.25;;
12437;SDS011;6283;51.330;12.374;2022-07-26T01:25:33;6.80;;;6.20;;
12437;SDS011;6283;51.330;12.374;2022-07-26T01:28:01;10.35;;;5.93;;
12437;SDS011;6283;51.330;12.374;2022-07-26T01:30:28;8.15;;;6.93;;
12437;SDS011;6283;51.330;12.374;2022-07-26T01:32:53;7.50;;;6.80;;
12437;SDS011;6283;51.330;12.374;2022-07-26T01:35:19;7.93;;;6.22;;
12437;SDS011;6283;51.330;12.374;2022-07-26T01:37:45;6.75;;;6.15;;
12437;SDS011;6283;51.330;12.374;2022-07-26T01:40:10;7.30;;;6.60;;
12437;SDS011;6283;51.330;12.374;2022-07-26T01:42:36;8.55;;;6.82;;
12437;SDS011;6283;51.330;12.374;2022-07-26T01:45:05;7.70;;;6.97;;
12437;SDS011;6283;51.330;12.374;2022-07-26T01:47:31;8.18;;;6.88;;
12437;SDS011;6283;51.330;12.374;2022-07-26T01:49:57;7.47;;;6.68;;
12437;SDS011;6283;51.330;12.374;2022-07-26T01:52:23;7.38;;;6.78;;
12437;SDS011;6283;51.330;12.374;2022-07-26T01:54:49;7.50;;;6.75;;
12437;SDS011;6283;51.330;12.374;2022-07-26T01:57:14;7.32;;;6.57;;
12437;SDS011;6283;51.330;12.374;2022-07-26T01:59:40;7.10;;;6.45;;
12437;SDS011;6283;51.330;12.374;2022-07-26T02:02:05;7.65;;;6.80;;
12437;SDS011;6283;51.330;12.374;2022-07-26T02:04:31;6.75;;;6.15;;
12437;SDS011;6283;51.330;12.374;2022-07-26T02:07:15;6.90;;;6.30;;
12437;SDS011;6283;51.330;12.374;2022-07-26T02:09:41;7.05;;;5.97;;
12437;SDS011;6283;51.330;12.374;2022-07-26T02:12:06;7.70;;;6.93;;
12437;SDS011;6283;51.330;12.374;2022-07-26T02:14:32;8.07;;;7.28;;
12437;SDS011;6283;51.330;12.374;2022-07-26T02:16:58;7.47;;;6.55;;
12437;SDS011;6283;51.330;12.374;2022-07-26T02:19:24;7.45;;;6.15;;
12437;SDS011;6283;51.330;12.374;2022-07-26T02:21:51;9.35;;;7.22;;
12437;SDS011;6283;51.330;12.374;2022-07-26T02:24:17;7.63;;;6.93;;
12437;SDS011;6283;51.330;12.374;2022-07-26T02:26:42;8.20;;;7.30;;
12437;SDS011;6283;51.330;12.374;2022-07-26T02:29:08;7.00;;;6.40;;
12437;SDS011;6283;51.330;12.374;2022-07-26T02:31:33;8.20;;;7.40;;
12437;SDS011;6283;51.330;12.374;2022-07-26T02:33:59;7.80;;;7.10;;
12437;SDS011;6283;51.330;12.374;2022-07-26T02:36:24;8.00;;;7.25;;
12437;SDS011;6283;51.330;12.374;2022-07-26T02:38:50;8.13;;;7.15;;
12437;SDS011;6283;51.330;12.374;2022-07-26T02:41:16;8.27;;;7.47;;
12437;SDS011;6283;51.330;12.374;2022-07-26T02:43:41;9.85;;;7.38;;
12437;SDS011;6283;51.330;12.374;2022-07-26T02:46:07;9.05;;;7.22;;
12437;SDS011;6283;51.330;12.374;2022-07-26T02:48:33;8.85;;;6.97;;
12437;SDS011;6283;51.330;12.374;2022-07-26T02:50:58;7.93;;;6.68;;
12437;SDS011;6283;51.330;12.374;2022-07-26T02:53:24;6.63;;;5.88;;
12437;SDS011;6283;51.330;12.374;2022-07-26T02:55:49;5.72;;;5.00;;
12437;SDS011;6283;51.330;12.374;2022-07-26T02:58:15;8.43;;;5.47;;
12437;SDS011;6283;51.330;12.374;2022-07-26T03:00:41;8.85;;;4.80;;
12437;SDS011;6283;51.330;12.374;2022-07-26T03:03:06;6.50;;;4.72;;
12437;SDS011;6283;51.330;12.374;2022-07-26T03:05:32;7.00;;;4.38;;
12437;SDS011;6283;51.330;12.374;2022-07-26T03:07:58;4.88;;;4.35;;
12437;SDS011;6283;51.330;12.374;2022-07-26T03:10:23;6.10;;;4.00;;
12437;SDS011;6283;51.330;12.374;2022-07-26T03:12:49;4.50;;;3.75;;
12437;SDS011;6283;51.330;12.374;2022-07-26T03:15:14;4.22;;;3.80;;
12437;SDS011;6283;51.330;12.374;2022-07-26T03:17:40;6.05;;;3.67;;
12437;SDS011;6283;51.330;12.374;2022-07-26T03:20:05;4.07;;;3.65;;
12437;SDS011;6283;51.330;12.374;2022-07-26T03:22:32;6.00;;;3.45;;
12437;SDS011;6283;51.330;12.374;2022-07-26T03:24:57;6.25;;;3.30;;
12437;SDS011;6283;51.330;12.374;2022-07-26T03:27:23;4.60;;;3.80;;
12437;SDS011;6283;51.330;12.374;2022-07-26T03:29:49;3.88;;;2.83;;
12437;SDS011;6283;51.330;12.374;2022-07-26T03:32:14;7.75;;;3.38;;
12437;SDS011;6283;51.330;12.374;2022-07-26T03:34:40;6.07;;;4.13;;
12437;SDS011;6283;51.330;12.374;2022-07-26T03:37:05;7.65;;;3.65;;
12437;SDS011;6283;51.330;12.374;2022-07-26T03:39:31;5.40;;;3.30;;
12437;SDS011;6283;51.330;12.374;2022-07-26T03:41:56;5.43;;;3.28;;
12437;SDS011;6283;51.330;12.374;2022-07-26T03:44:22;5.80;;;3.10;;
12437;SDS011;6283;51.330;12.374;2022-07-26T03:46:47;5.15;;;3.17;;
12437;SDS011;6283;51.330;12.374;2022-07-26T03:49:13;6.53;;;3.20;;
12437;SDS011;6283;51.330;12.374;2022-07-26T03:51:39;6.28;;;3.30;;
12437;SDS011;6283;51.330;12.374;2022-07-26T03:54:04;6.07;;;3.25;;
12437;SDS011;6283;51.330;12.374;2022-07-26T03:56:30;7.40;;;3.85;;
12437;SDS011;6283;51.330;12.374;2022-07-26T03:59:00;5.03;;;3.25;;
12437;SDS011;6283;51.330;12.374;2022-07-26T04:01:27;5.85;;;3.10;;
12437;SDS011;6283;51.330;12.374;2022-07-26T04:03:54;5.50;;;3.17;;
12437;SDS011;6283;51.330;12.374;2022-07-26T04:06:19;4.00;;;3.50;;
12437;SDS011;6283;51.330;12.374;2022-07-26T04:08:45;6.22;;;3.53;;
12437;SDS011;6283;51.330;12.374;2022-07-26T04:11:11;5.47;;;3.45;;
12437;SDS011;6283;51.330;12.374;2022-07-26T04:13:37;3.85;;;3.42;;
12437;SDS011;6283;51.330;12.374;2022-07-26T04:16:02;3.35;;;3.03;;
12437;SDS011;6283;51.330;12.374;2022-07-26T04:18:28;6.55;;;3.55;;
12437;SDS011;6283;51.330;12.374;2022-07-26T04:20:54;7.63;;;3.55;;
12437;SDS011;6283;51.330;12.374;2022-07-26T04:23:20;9.48;;;3.53;;
12437;SDS011;6283;51.330;12.374;2022-07-26T04:25:46;8.40;;;3.25;;
12437;SDS011;6283;51.330;12.374;2022-07-26T04:28:11;6.88;;;3.78;;
12437;SDS011;6283;51.330;12.374;2022-07-26T04:30:39;4.47;;;3.10;;
12437;SDS011;6283;51.330;12.374;2022-07-26T04:33:05;4.13;;;3.00;;
12437;SDS011;6283;51.330;12.374;2022-07-26T04:35:31;5.53;;;3.85;;
12437;SDS011;6283;51.330;12.374;2022-07-26T04:37:57;4.35;;;3.28;;
12437;SDS011;6283;51.330;12.374;2022-07-26T04:40:23;3.97;;;3.10;;
12437;SDS011;6283;51.330;12.374;2022-07-26T04:42:51;8.80;;;4.18;;
12437;SDS011;6283;51.330;12.374;2022-07-26T04:45:17;6.00;;;3.90;;
12437;SDS011;6283;51.330;12.374;2022-07-26T04:47:44;4.82;;;3.75;;
12437;SDS011;6283;51.330;12.374;2022-07-26T04:50:12;6.95;;;3.50;;
12437;SDS011;6283;51.330;12.374;2022-07-26T04:52:38;6.35;;;4.10;;
12437;SDS011;6283;51.330;12.374;2022-07-26T04:55:06;4.97;;;3.83;;
12437;SDS011;6283;51.330;12.374;2022-07-26T04:57:34;7.47;;;3.70;;
12437;SDS011;6283;51.330;12.374;2022-07-26T05:00:00;4.20;;;3.67;;
12437;SDS011;6283;51.330;12.374;2022-07-26T05:02:26;5.90;;;3.30;;
12437;SDS011;6283;51.330;12.374;2022-07-26T05:04:52;8.18;;;3.53;;
12437;SDS011;6283;51.330;12.374;2022-07-26T05:07:17;4.93;;;3.45;;
12437;SDS011;6283;51.330;12.374;2022-07-26T05:09:43;7.47;;;3.38;;
12437;SDS011;6283;51.330;12.374;2022-07-26T05:12:09;5.90;;;3.40;;
12437;SDS011;6283;51.330;12.374;2022-07-26T05:14:34;8.00;;;3.17;;
12437;SDS011;6283;51.330;12.374;2022-07-26T05:17:01;5.25;;;3.03;;
12437;SDS011;6283;51.330;12.374;2022-07-26T05:19:27;6.03;;;3.28;;
12437;SDS011;6283;51.330;12.374;2022-07-26T05:21:53;7.75;;;3.05;;
12437;SDS011;6283;51.330;12.374;2022-07-26T05:24:19;4.40;;;3.20;;
12437;SDS011;6283;51.330;12.374;2022-07-26T05:26:44;5.82;;;3.47;;
12437;SDS011;6283;51.330;12.374;2022-07-26T05:29:10;3.88;;;3.22;;
12437;SDS011;6283;51.330;12.374;2022-07-26T05:31:36;8.35;;;2.90;;
12437;SDS011;6283;51.330;12.374;2022-07-26T05:34:01;4.65;;;2.95;;
12437;SDS011;6283;51.330;12.374;2022-07-26T05:36:28;4.45;;;2.78;;
12437;SDS011;6283;51.330;12.374;2022-07-26T05:38:54;4.78;;;3.03;;
12437;SDS011;6283;51.330;12.374;2022-07-26T05:41:19;4.30;;;2.90;;
12437;SDS011;6283;51.330;12.374;2022-07-26T05:43:45;7.25;;;3.38;;
12437;SDS011;6283;51.330;12.374;2022-07-26T05:46:11;3.92;;;3.08;;
12437;SDS011;6283;51.330;12.374;2022-07-26T05:48:37;5.65;;;3.05;;
12437;SDS011;6283;51.330;12.374;2022-07-26T05:51:03;3.30;;;2.97;;
12437;SDS011;6283;51.330;12.374;2022-07-26T05:53:28;6.30;;;3.05;;
12437;SDS011;6283;51.330;12.374;2022-07-26T05:55:54;4.40;;;3.00;;
12437;SDS011;6283;51.330;12.374;2022-07-26T05:58:20;4.03;;;2.72;;
12437;SDS011;6283;51.330;12.374;2022-07-26T06:00:45;4.65;;;3.17;;
12437;SDS011;6283;51.330;12.374;2022-07-26T06:03:11;5.35;;;2.53;;
12437;SDS011;6283;51.330;12.374;2022-07-26T06:05:50;5.97;;;2.92;;
12437;SDS011;6283;51.330;12.374;2022-07-26T06:08:17;4.43;;;2.25;;
12437;SDS011;6283;51.330;12.374;2022-07-26T06:10:43;5.43;;;1.88;;
12437;SDS011;6283;51.330;12.374;2022-07-26T06:13:09;2.33;;;1.85;;
12437;SDS011;6283;51.330;12.374;2022-07-26T06:15:35;6.35;;;2.35;;
12437;SDS011;6283;51.330;12.374;2022-07-26T06:18:02;3.10;;;1.80;;
12437;SDS011;6283;51.330;12.374;2022-07-26T06:20:31;4.25;;;1.65;;
12437;SDS011;6283;51.330;12.374;2022-07-26T06:22:57;3.22;;;1.75;;
12437;SDS011;6283;51.330;12.374;2022-07-26T06:25:23;7.15;;;2.30;;
12437;SDS011;6283;51.330;12.374;2022-07-26T06:27:49;4.47;;;2.20;;
12437;SDS011;6283;51.330;12.374;2022-07-26T06:30:15;5.63;;;2.10;;
12437;SDS011;6283;51.330;12.374;2022-07-26T06:32:41;4.10;;;2.00;;
12437;SDS011;6283;51.330;12.374;2022-07-26T06:35:12;4.65;;;1.90;;
12437;SDS011;6283;51.330;12.374;2022-07-26T06:37:39;5.45;;;2.20;;
12437;SDS011;6283;51.330;12.374;2022-07-26T06:40:06;2.00;;;1.80;;
12437;SDS011;6283;51.330;12.374;2022-07-26T06:42:34;4.45;;;2.00;;
12437;SDS011;6283;51.330;12.374;2022-07-26T06:44:59;4.25;;;1.70;;
12437;SDS011;6283;51.330;12.374;2022-07-26T06:47:26;4.82;;;2.15;;
12437;SDS011;6283;51.330;12.374;2022-07-26T06:49:51;3.70;;;1.77;;
12437;SDS011;6283;51.330;12.374;2022-07-26T06:52:17;4.70;;;1.90;;
12437;SDS011;6283;51.330;12.374;2022-07-26T06:54:43;5.85;;;2.20;;
12437;SDS011;6283;51.330;12.374;2022-07-26T06:57:09;9.45;;;2.65;;
12437;SDS011;6283;51.330;12.374;2022-07-26T06:59:35;4.00;;;2.10;;
12437;SDS011;6283;51.330;12.374;2022-07-26T07:02:01;4.03;;;2.00;;
12437;SDS011;6283;51.330;12.374;2022-07-26T07:04:30;3.25;;;2.05;;
12437;SDS011;6283;51.330;12.374;2022-07-26T07:06:56;8.77;;;2.15;;
12437;SDS011;6283;51.330;12.374;2022-07-26T07:09:26;3.22;;;1.83;;
12437;SDS011;6283;51.330;12.374;2022-07-26T07:11:53;5.53;;;2.10;;
12437;SDS011;6283;51.330;12.374;2022-07-26T07:14:18;3.92;;;1.95;;
12437;SDS011;6283;51.330;12.374;2022-07-26T07:16:44;5.65;;;2.30;;
12437;SDS011;6283;51.330;12.374;2022-07-26T07:19:10;3.05;;;1.83;;
12437;SDS011;6283;51.330;12.374;2022-07-26T07:21:36;3.25;;;1.70;;
12437;SDS011;6283;51.330;12.374;2022-07-26T07:24:01;3.25;;;1.73;;
12437;SDS011;6283;51.330;12.374;2022-07-26T07:26:27;5.47;;;1.90;;
12437;SDS011;6283;51.330;12.374;2022-07-26T07:28:53;6.60;;;2.00;;
12437;SDS011;6283;51.330;12.374;2022-07-26T07:31:18;2.58;;;1.75;;
12437;SDS011;6283;51.330;12.374;2022-07-26T07:33:44;4.75;;;1.67;;
12437;SDS011;6283;51.330;12.374;2022-07-26T07:36:09;5.45;;;2.17;;
12437;SDS011;6283;51.330;12.374;2022-07-26T07:38:35;4.38;;;1.75;;
12437;SDS011;6283;51.330;12.374;2022-07-26T07:41:00;4.50;;;1.70;;
12437;SDS011;6283;51.330;12.374;2022-07-26T07:43:26;3.00;;;2.00;;
12437;SDS011;6283;51.330;12.374;2022-07-26T07:45:51;2.58;;;1.52;;
12437;SDS011;6283;51.330;12.374;2022-07-26T07:48:17;5.47;;;1.73;;
12437;SDS011;6283;51.330;12.374;2022-07-26T07:50:43;5.80;;;1.65;;
12437;SDS011;6283;51.330;12.374;2022-07-26T07:53:08;5.93;;;1.95;;
12437;SDS011;6283;51.330;12.374;2022-07-26T07:55:34;7.53;;;1.77;;
12437;SDS011;6283;51.330;12.374;2022-07-26T07:58:00;4.05;;;1.90;;
12437;SDS011;6283;51.330;12.374;2022-07-26T08:00:31;2.88;;;1.80;;
12437;SDS011;6283;51.330;12.374;2022-07-26T08:02:57;4.85;;;1.83;;
12437;SDS011;6283;51.330;12.374;2022-07-26T08:05:22;3.92;;;1.67;;
12437;SDS011;6283;51.330;12.374;2022-07-26T08:07:48;3.40;;;1.35;;
12437;SDS011;6283;51.330;12.374;2022-07-26T08:10:13;2.13;;;1.33;;
12437;SDS011;6283;51.330;12.374;2022-07-26T08:12:40;2.80;;;1.70;;
12437;SDS011;6283;51.330;12.374;2022-07-26T08:15:06;4.35;;;1.45;;
12437;SDS011;6283;51.330;12.374;2022-07-26T08:17:32;2.03;;;1.35;;
12437;SDS011;6283;51.330;12.374;2022-07-26T08:19:58;2.90;;;1.42;;
12437;SDS011;6283;51.330;12.374;2022-07-26T08:22:24;4.22;;;1.50;;
12437;SDS011;6283;51.330;12.374;2022-07-26T08:24:49;1.63;;;1.50;;
12437;SDS011;6283;51.330;12.374;2022-07-26T08:27:16;3.72;;;1.48;;
12437;SDS011;6283;51.330;12.374;2022-07-26T08:29:42;7.40;;;2.28;;
12437;SDS011;6283;51.330;12.374;2022-07-26T08:32:07;3.38;;;1.88;;
12437;SDS011;6283;51.330;12.374;2022-07-26T08:34:33;2.42;;;1.50;;
12437;SDS011;6283;51.330;12.374;2022-07-26T08:36:59;3.58;;;1.63;;
12437;SDS011;6283;51.330;12.374;2022-07-26T08:39:24;1.80;;;1.52;;
12437;SDS011;6283;51.330;12.374;2022-07-26T08:41:50;5.45;;;1.67;;
12437;SDS011;6283;51.330;12.374;2022-07-26T08:44:15;2.95;;;1.40;;
12437;SDS011;6283;51.330;12.374;2022-07-26T08:46:41;1.58;;;1.48;;
12437;SDS011;6283;51.330;12.374;2022-07-26T08:49:07;3.80;;;1.50;;
12437;SDS011;6283;51.330;12.374;2022-07-26T08:51:37;3.28;;;1.60;;
12437;SDS011;6283;51.330;12.374;2022-07-26T08:54:06;1.70;;;1.60;;
12437;SDS011;6283;51.330;12.374;2022-07-26T08:56:34;2.17;;;1.50;;
12437;SDS011;6283;51.330;12.374;2022-07-26T08:59:02;2.83;;;1.73;;
12437;SDS011;6283;51.330;12.374;2022-07-26T09:01:29;2.03;;;1.48;;
12437;SDS011;6283;51.330;12.374;2022-07-26T09:03:54;2.70;;;1.42;;
12437;SDS011;6283;51.330;12.374;2022-07-26T09:06:21;1.75;;;1.65;;
12437;SDS011;6283;51.330;12.374;2022-07-26T09:08:54;3.17;;;1.52;;
12437;SDS011;6283;51.330;12.374;2022-07-26T09:11:34;2.65;;;1.73;;
12437;SDS011;6283;51.330;12.374;2022-07-26T09:14:01;3.17;;;1.50;;
12437;SDS011;6283;51.330;12.374;2022-07-26T09:16:29;4.78;;;1.90;;
12437;SDS011;6283;51.330;12.374;2022-07-26T09:19:16;3.03;;;1.80;;
12437;SDS011;6283;51.330;12.374;2022-07-26T09:21:43;4.47;;;2.00;;
12437;SDS011;6283;51.330;12.374;2022-07-26T09:24:10;3.72;;;1.88;;
12437;SDS011;6283;51.330;12.374;2022-07-26T09:26:36;4.68;;;2.17;;
12437;SDS011;6283;51.330;12.374;2022-07-26T09:31:35;3.65;;;1.70;;
12437;SDS011;6283;51.330;12.374;2022-07-26T09:34:02;4.32;;;1.90;;
12437;SDS011;6283;51.330;12.374;2022-07-26T09:36:28;2.80;;;1.75;;
12437;SDS011;6283;51.330;12.374;2022-07-26T09:38:59;2.55;;;1.73;;
12437;SDS011;6283;51.330;12.374;2022-07-26T09:41:34;1.70;;;1.60;;
12437;SDS011;6283;51.330;12.374;2022-07-26T09:44:02;1.98;;;1.73;;
12437;SDS011;6283;51.330;12.374;2022-07-26T09:46:29;3.40;;;1.95;;
12437;SDS011;6283;51.330;12.374;2022-07-26T09:48:56;1.95;;;1.85;;
12437;SDS011;6283;51.330;12.374;2022-07-26T09:54:06;3.78;;;1.70;;
12437;SDS011;6283;51.330;12.374;2022-07-26T09:56:42;3.75;;;2.05;;
12437;SDS011;6283;51.330;12.374;2022-07-26T09:59:13;2.75;;;1.90;;
12437;SDS011;6283;51.330;12.374;2022-07-26T10:01:42;3.60;;;1.55;;
12437;SDS011;6283;51.330;12.374;2022-07-26T10:04:08;3.78;;;2.05;;
12437;SDS011;6283;51.330;12.374;2022-07-26T10:06:33;1.30;;;1.20;;
12437;SDS011;6283;51.330;12.374;2022-07-26T10:08:59;4.47;;;1.85;;
12437;SDS011;6283;51.330;12.374;2022-07-26T10:11:27;1.80;;;1.70;;
12437;SDS011;6283;51.330;12.374;2022-07-26T10:14:00;4.22;;;1.80;;
12437;SDS011;6283;51.330;12.374;2022-07-26T10:16:58;1.70;;;1.60;;
12437;SDS011;6283;51.330;12.374;2022-07-26T10:19:37;3.53;;;1.67;;
12437;SDS011;6283;51.330;12.374;2022-07-26T10:24:52;3.63;;;1.58;;
12437;SDS011;6283;51.330;12.374;2022-07-26T10:27:52;2.47;;;1.60;;
12437;SDS011;6283;51.330;12.374;2022-07-26T10:32:41;3.00;;;1.40;;
12437;SDS011;6283;51.330;12.374;2022-07-26T10:38:00;1.40;;;1.25;;
12437;SDS011;6283;51.330;12.374;2022-07-26T10:40:26;1.80;;;1.30;;
12437;SDS011;6283;51.330;12.374;2022-07-26T10:43:11;1.52;;;1.42;;
12437;SDS011;6283;51.330;12.374;2022-07-26T10:45:39;2.80;;;1.65;;
12437;SDS011;6283;51.330;12.374;2022-07-26T10:48:18;1.98;;;1.80;;
12437;SDS011;6283;51.330;12.374;2022-07-26T10:50:51;3.58;;;1.70;;
12437;SDS011;6283;51.330;12.374;2022-07-26T10:53:19;2.28;;;1.40;;
12437;SDS011;6283;51.330;12.374;2022-07-26T10:55:50;3.28;;;1.67;;
12437;SDS011;6283;51.330;12.374;2022-07-26T10:58:20;1.63;;;1.52;;
12437;SDS011;6283;51.330;12.374;2022-07-26T11:00:58;2.63;;;1.50;;
12437;SDS011;6283;51.330;12.374;2022-07-26T11:03:38;1.70;;;1.60;;
12437;SDS011;6283;51.330;12.374;2022-07-26T11:06:08;2.80;;;1.80;;
12437;SDS011;6283;51.330;12.374;2022-07-26T11:08:38;1.88;;;1.73;;
12437;SDS011;6283;51.330;12.374;2022-07-26T11:11:04;1.85;;;1.70;;
12437;SDS011;6283;51.330;12.374;2022-07-26T11:13:30;1.88;;;1.77;;
12437;SDS011;6283;51.330;12.374;2022-07-26T11:15:58;1.88;;;1.65;;
12437;SDS011;6283;51.330;12.374;2022-07-26T11:18:26;3.33;;;1.77;;
12437;SDS011;6283;51.330;12.374;2022-07-26T11:20:55;2.78;;;1.73;;
12437;SDS011;6283;51.330;12.374;2022-07-26T11:23:32;2.70;;;1.63;;
12437;SDS011;6283;51.330;12.374;2022-07-26T11:31:12;2.95;;;1.90;;
12437;SDS011;6283;51.330;12.374;2022-07-26T11:33:39;1.77;;;1.67;;
12437;SDS011;6283;51.330;12.374;2022-07-26T11:36:06;2.67;;;1.60;;
12437;SDS011;6283;51.330;12.374;2022-07-26T11:38:51;2.65;;;1.70;;
12437;SDS011;6283;51.330;12.374;2022-07-26T11:41:19;2.15;;;1.67;;
12437;SDS011;6283;51.330;12.374;2022-07-26T11:43:49;2.35;;;1.83;;
12437;SDS011;6283;51.330;12.374;2022-07-26T11:46:16;1.83;;;1.42;;
12437;SDS011;6283;51.330;12.374;2022-07-26T11:48:43;1.83;;;1.73;;
12437;SDS011;6283;51.330;12.374;2022-07-26T11:51:11;3.22;;;1.60;;
12437;SDS011;6283;51.330;12.374;2022-07-26T11:53:39;2.08;;;1.70;;
12437;SDS011;6283;51.330;12.374;2022-07-26T11:56:12;2.13;;;1.92;;
12437;SDS011;6283;51.330;12.374;2022-07-26T11:58:46;2.00;;;1.90;;
12437;SDS011;6283;51.330;12.374;2022-07-26T12:01:14;2.00;;;1.73;;
12437;SDS011;6283;51.330;12.374;2022-07-26T12:03:43;2.03;;;1.83;;
12437;SDS011;6283;51.330;12.374;2022-07-26T12:06:11;1.95;;;1.85;;
12437;SDS011;6283;51.330;12.374;2022-07-26T12:08:39;2.08;;;1.90;;
12437;SDS011;6283;51.330;12.374;2022-07-26T12:11:05;2.28;;;2.05;;
12437;SDS011;6283;51.330;12.374;2022-07-26T12:13:31;3.47;;;2.08;;
12437;SDS011;6283;51.330;12.374;2022-07-26T12:16:11;1.95;;;1.83;;
12437;SDS011;6283;51.330;12.374;2022-07-26T12:18:37;2.13;;;1.90;;
12437;SDS011;6283;51.330;12.374;2022-07-26T12:21:04;2.00;;;1.90;;
12437;SDS011;6283;51.330;12.374;2022-07-26T12:26:22;3.33;;;2.00;;
12437;SDS011;6283;51.330;12.374;2022-07-26T12:28:50;2.50;;;2.30;;
12437;SDS011;6283;51.330;12.374;2022-07-26T12:33:50;4.10;;;2.30;;
12437;SDS011;6283;51.330;12.374;2022-07-26T12:36:19;2.63;;;2.42;;
12437;SDS011;6283;51.330;12.374;2022-07-26T12:38:46;2.50;;;2.30;;
12437;SDS011;6283;51.330;12.374;2022-07-26T12:41:26;2.22;;;2.03;;
12437;SDS011;6283;51.330;12.374;2022-07-26T12:44:04;2.25;;;2.15;;
12437;SDS011;6283;51.330;12.374;2022-07-26T12:46:32;8.23;;;2.30;;
12437;SDS011;6283;51.330;12.374;2022-07-26T12:48:59;4.28;;;2.35;;
12437;SDS011;6283;51.330;12.374;2022-07-26T12:51:24;2.65;;;2.10;;
12437;SDS011;6283;51.330;12.374;2022-07-26T12:53:50;7.28;;;2.83;;
12437;SDS011;6283;51.330;12.374;2022-07-26T12:56:15;3.78;;;2.60;;
12437;SDS011;6283;51.330;12.374;2022-07-26T12:58:41;4.28;;;2.22;;
12437;SDS011;6283;51.330;12.374;2022-07-26T13:01:07;2.92;;;2.17;;
12437;SDS011;6283;51.330;12.374;2022-07-26T13:03:32;3.83;;;2.50;;
12437;SDS011;6283;51.330;12.374;2022-07-26T13:05:58;3.88;;;2.30;;
12437;SDS011;6283;51.330;12.374;2022-07-26T13:08:23;3.15;;;2.50;;
12437;SDS011;6283;51.330;12.374;2022-07-26T13:10:49;2.65;;;2.35;;
12437;SDS011;6283;51.330;12.374;2022-07-26T13:13:15;2.58;;;2.03;;
12437;SDS011;6283;51.330;12.374;2022-07-26T13:15:40;2.00;;;1.85;;
12437;SDS011;6283;51.330;12.374;2022-07-26T13:18:06;2.45;;;2.20;;
12437;SDS011;6283;51.330;12.374;2022-07-26T13:20:32;2.10;;;2.00;;
12437;SDS011;6283;51.330;12.374;2022-07-26T13:22:58;2.50;;;2.30;;
12437;SDS011;6283;51.330;12.374;2022-07-26T13:25:24;4.22;;;2.30;;
12437;SDS011;6283;51.330;12.374;2022-07-26T13:27:49;2.60;;;2.17;;
12437;SDS011;6283;51.330;12.374;2022-07-26T13:30:15;2.30;;;2.10;;
12437;SDS011;6283;51.330;12.374;2022-07-26T13:32:43;3.90;;;2.42;;
12437;SDS011;6283;51.330;12.374;2022-07-26T13:35:09;3.25;;;2.70;;
12437;SDS011;6283;51.330;12.374;2022-07-26T13:37:34;5.50;;;2.88;;
12437;SDS011;6283;51.330;12.374;2022-07-26T13:40:02;4.57;;;2.72;;
12437;SDS011;6283;51.330;12.374;2022-07-26T13:42:28;3.25;;;2.47;;
12437;SDS011;6283;51.330;12.374;2022-07-26T13:44:54;6.10;;;2.22;;
12437;SDS011;6283;51.330;12.374;2022-07-26T13:47:19;4.55;;;2.17;;
12437;SDS011;6283;51.330;12.374;2022-07-26T13:49:45;2.63;;;2.35;;
12437;SDS011;6283;51.330;12.374;2022-07-26T13:52:10;3.35;;;1.95;;
12437;SDS011;6283;51.330;12.374;2022-07-26T13:54:36;2.70;;;2.20;;
12437;SDS011;6283;51.330;12.374;2022-07-26T13:57:02;7.75;;;2.45;;
12437;SDS011;6283;51.330;12.374;2022-07-26T13:59:28;5.65;;;2.55;;
12437;SDS011;6283;51.330;12.374;2022-07-26T14:01:55;2.88;;;2.53;;
12437;SDS011;6283;51.330;12.374;2022-07-26T14:04:21;3.63;;;2.30;;
12437;SDS011;6283;51.330;12.374;2022-07-26T14:06:47;4.93;;;2.38;;
12437;SDS011;6283;51.330;12.374;2022-07-26T14:09:13;5.10;;;2.20;;
12437;SDS011;6283;51.330;12.374;2022-07-26T14:11:39;2.75;;;2.05;;
12437;SDS011;6283;51.330;12.374;2022-07-26T14:14:05;2.58;;;2.38;;
12437;SDS011;6283;51.330;12.374;2022-07-26T14:16:31;4.53;;;2.47;;
12437;SDS011;6283;51.330;12.374;2022-07-26T14:18:58;2.33;;;2.00;;
12437;SDS011;6283;51.330;12.374;2022-07-26T14:21:24;3.30;;;2.30;;
12437;SDS011;6283;51.330;12.374;2022-07-26T14:23:51;3.67;;;2.08;;
12437;SDS011;6283;51.330;12.374;2022-07-26T14:26:17;3.50;;;2.20;;
12437;SDS011;6283;51.330;12.374;2022-07-26T14:28:43;4.82;;;2.60;;
12437;SDS011;6283;51.330;12.374;2022-07-26T14:31:09;3.28;;;2.33;;
12437;SDS011;6283;51.330;12.374;2022-07-26T14:33:35;2.20;;;2.10;;
12437;SDS011;6283;51.330;12.374;2022-07-26T14:36:00;2.75;;;2.05;;
12437;SDS011;6283;51.330;12.374;2022-07-26T14:38:26;3.30;;;2.10;;
12437;SDS011;6283;51.330;12.374;2022-07-26T14:40:52;3.03;;;2.30;;
12437;SDS011;6283;51.330;12.374;2022-07-26T14:43:19;5.93;;;2.90;;
12437;SDS011;6283;51.330;12.374;2022-07-26T14:45:45;5.43;;;2.55;;
12437;SDS011;6283;51.330;12.374;2022-07-26T14:48:12;2.67;;;2.35;;
12437;SDS011;6283;51.330;12.374;2022-07-26T14:50:38;3.53;;;2.40;;
12437;SDS011;6283;51.330;12.374;2022-07-26T14:53:05;4.38;;;2.28;;
12437;SDS011;6283;51.330;12.374;2022-07-26T14:55:31;4.78;;;2.53;;
12437;SDS011;6283;51.330;12.374;2022-07-26T14:57:57;2.20;;;2.00;;
12437;SDS011;6283;51.330;12.374;2022-07-26T15:00:22;3.53;;;2.40;;
12437;SDS011;6283;51.330;12.374;2022-07-26T15:02:48;4.78;;;3.97;;
12437;SDS011;6283;51.330;12.374;2022-07-26T15:05:14;3.25;;;2.65;;
12437;SDS011;6283;51.330;12.374;2022-07-26T15:07:40;2.95;;;2.33;;
12437;SDS011;6283;51.330;12.374;2022-07-26T15:10:07;2.72;;;2.25;;